createdAt,value
2023-04-21T00:00:21.810Z, 45.63
2023-04-21T00:01:21.794Z, 45.56
2023-04-21T00:02:21.913Z, 45.52
2023-04-21T00:03:22.003Z, 45.51
2023-04-21T00:04:22.018Z, 45.51
2023-04-21T00:05:21.994Z, 45.43
2023-04-21T00:06:21.845Z, 45.47
2023-04-21T00:07:21.859Z, 45.41
2023-04-21T00:08:21.875Z, 45.41
2023-04-21T00:09:21.998Z, 45.38
2023-04-21T00:10:21.932Z, 45.41
2023-04-21T00:11:21.926Z, 45.40
2023-04-21T00:12:21.987Z, 45.35
2023-04-21T00:13:21.992Z, 45.25
2023-04-21T00:14:21.994Z, 45.30
2023-04-21T00:15:21.995Z, 45.22
2023-04-21T00:16:22.148Z, 45.20
2023-04-21T00:17:22.023Z, 45.17
2023-04-21T00:18:22.028Z, 45.13
2023-04-21T00:19:22.041Z, 45.06
2023-04-21T00:20:22.054Z, 44.99
2023-04-21T00:21:22.095Z, 45.00
2023-04-21T00:22:22.090Z, 44.99
2023-04-21T00:23:22.180Z, 44.99
2023-04-21T00:24:22.152Z, 44.94
2023-04-21T00:25:22.154Z, 44.94
2023-04-21T00:26:22.168Z, 44.98
2023-04-21T00:27:22.148Z, 45.00
2023-04-21T00:28:22.247Z, 44.92
2023-04-21T00:29:22.269Z, 44.82
2023-04-21T00:30:22.253Z, 44.86
2023-04-21T00:31:22.266Z, 44.91
2023-04-21T00:32:22.292Z, 44.91
2023-04-21T00:33:22.247Z, 44.88
2023-04-21T00:34:22.253Z, 44.80
2023-04-21T00:35:26.691Z, 44.75
2023-04-21T00:36:22.243Z, 44.67
2023-04-21T00:37:22.250Z, 44.68
2023-04-21T00:38:22.276Z, 44.70
2023-04-21T00:39:22.300Z, 44.67
2023-04-21T00:40:22.297Z, 44.67
2023-04-21T00:41:22.327Z, 44.62
2023-04-21T00:42:22.370Z, 44.55
2023-04-21T00:43:22.382Z, 44.56
2023-04-21T00:44:22.365Z, 44.44
2023-04-21T00:45:22.381Z, 44.45
2023-04-21T00:46:22.417Z, 44.40
2023-04-21T00:47:22.414Z, 44.36
2023-04-21T00:48:22.407Z, 44.39
2023-04-21T00:49:22.433Z, 44.43
2023-04-21T00:50:22.425Z, 44.36
2023-04-21T00:51:22.447Z, 44.33
2023-04-21T00:52:22.546Z, 44.27
2023-04-21T00:53:22.502Z, 44.31
2023-04-21T00:54:22.549Z, 44.29
2023-04-21T00:55:22.521Z, 44.23
2023-04-21T00:56:22.550Z, 44.25
2023-04-21T00:57:22.544Z, 44.24
2023-04-21T00:58:22.539Z, 44.18
2023-04-21T00:59:22.546Z, 44.18
2023-04-21T01:00:22.540Z, 44.19
2023-04-21T01:01:22.695Z, 44.11
2023-04-21T01:02:22.871Z, 44.12
2023-04-21T01:03:22.937Z, 44.04
2023-04-21T01:04:22.686Z, 44.04
2023-04-21T01:05:22.654Z, 44.00
2023-04-21T01:06:22.654Z, 43.93
2023-04-21T01:07:22.664Z, 43.90
2023-04-21T01:08:22.735Z, 43.86
2023-04-21T01:09:22.707Z, 43.88
2023-04-21T01:10:22.741Z, 43.89
2023-04-21T01:11:22.733Z, 43.83
2023-04-21T01:12:22.741Z, 43.80
2023-04-21T01:13:22.737Z, 43.73
2023-04-21T01:14:22.812Z, 43.72
2023-04-21T01:15:22.800Z, 43.74
2023-04-21T01:16:22.834Z, 43.74
2023-04-21T01:17:22.853Z, 43.73
2023-04-21T01:18:22.829Z, 43.71
2023-04-21T01:19:22.909Z, 43.63
2023-04-21T01:20:22.874Z, 43.61
2023-04-21T01:21:22.871Z, 43.64
2023-04-21T01:22:22.868Z, 43.64
2023-04-21T01:23:22.868Z, 43.62
2023-04-21T01:24:22.908Z, 43.51
2023-04-21T01:25:22.904Z, 43.50
2023-04-21T01:26:22.956Z, 43.49
2023-04-21T01:27:22.936Z, 43.52
2023-04-21T01:28:22.939Z, 43.47
2023-04-21T01:29:22.980Z, 43.41
2023-04-21T01:30:22.943Z, 43.38
2023-04-21T01:31:23.110Z, 43.35
2023-04-21T01:32:23.076Z, 43.37
2023-04-21T01:33:22.991Z, 43.41
2023-04-21T01:34:23.047Z, 43.42
2023-04-21T01:35:23.038Z, 43.40
2023-04-21T01:36:23.069Z, 43.44
2023-04-21T01:37:23.060Z, 43.33
2023-04-21T01:38:23.049Z, 43.35
2023-04-21T01:39:23.068Z, 43.29
2023-04-21T01:40:23.072Z, 43.20
2023-04-21T01:41:23.139Z, 43.23
2023-04-21T01:42:23.110Z, 43.23
2023-04-21T01:43:23.113Z, 43.19
2023-04-21T01:44:23.123Z, 43.14
2023-04-21T01:45:23.135Z, 43.12
2023-04-21T01:46:23.228Z, 43.06
2023-04-21T01:47:23.222Z, 43.06
2023-04-21T01:48:23.175Z, 43.03
2023-04-21T01:49:27.038Z, 43.01
2023-04-21T01:50:23.261Z, 43.03
2023-04-21T01:51:23.240Z, 43.04
2023-04-21T01:52:23.291Z, 43.10
2023-04-21T01:53:23.251Z, 43.09
2023-04-21T01:54:23.249Z, 43.02
2023-04-21T01:55:23.280Z, 42.98
2023-04-21T01:56:23.320Z, 42.99
2023-04-21T01:57:23.299Z, 42.98
2023-04-21T01:58:23.333Z, 42.88
2023-04-21T01:59:23.311Z, 42.95
2023-04-21T02:00:23.358Z, 42.83
2023-04-21T02:01:23.408Z, 42.83
2023-04-21T02:02:23.443Z, 42.84
2023-04-21T02:03:23.465Z, 42.75
2023-04-21T02:04:23.547Z, 42.75
2023-04-21T02:05:23.381Z, 42.70
2023-04-21T02:06:23.381Z, 42.74
2023-04-21T02:07:23.474Z, 42.73
2023-04-21T02:08:23.451Z, 42.75
2023-04-21T02:09:23.473Z, 42.68
2023-04-21T02:10:23.453Z, 42.56
2023-04-21T02:11:23.473Z, 42.58
2023-04-21T02:12:23.459Z, 42.56
2023-04-21T02:13:23.479Z, 42.53
2023-04-21T02:14:23.482Z, 42.55
2023-04-21T02:15:23.483Z, 42.57
2023-04-21T02:16:23.553Z, 42.49
2023-04-21T02:17:23.493Z, 42.41
2023-04-21T02:18:23.523Z, 42.45
2023-04-21T02:19:23.530Z, 42.40
2023-04-21T02:20:23.605Z, 42.40
2023-04-21T02:21:23.594Z, 42.41
2023-04-21T02:22:23.629Z, 42.42
2023-04-21T02:23:23.692Z, 42.36
2023-04-21T02:24:23.649Z, 42.34
2023-04-21T02:25:23.636Z, 42.33
2023-04-21T02:26:23.680Z, 42.27
2023-04-21T02:27:23.663Z, 42.27
2023-04-21T02:28:23.662Z, 42.24
2023-04-21T02:29:23.682Z, 42.19
2023-04-21T02:30:23.697Z, 42.25
2023-04-21T02:31:23.804Z, 42.24
2023-04-21T02:32:26.147Z, 42.24
2023-04-21T02:33:23.840Z, 42.14
2023-04-21T02:34:23.770Z, 42.10
2023-04-21T02:35:23.789Z, 42.12
2023-04-21T02:36:23.790Z, 42.17
2023-04-21T02:37:23.828Z, 42.15
2023-04-21T02:38:23.828Z, 42.15
2023-04-21T02:39:23.839Z, 42.15
2023-04-21T02:40:23.830Z, 42.10
2023-04-21T02:41:23.819Z, 42.06
2023-04-21T02:42:23.858Z, 42.01
2023-04-21T02:43:23.860Z, 42.04
2023-04-21T02:44:23.862Z, 42.06
2023-04-21T02:45:23.850Z, 42.06
2023-04-21T02:46:23.972Z, 41.90
2023-04-21T02:47:23.923Z, 41.91
2023-04-21T02:48:23.909Z, 41.89
2023-04-21T02:49:23.984Z, 41.88
2023-04-21T02:50:23.971Z, 41.89
2023-04-21T02:51:23.965Z, 41.83
2023-04-21T02:52:23.974Z, 41.83
2023-04-21T02:53:24.091Z, 41.86
2023-04-21T02:54:24.036Z, 41.81
2023-04-21T02:55:24.034Z, 41.73
2023-04-21T02:56:24.029Z, 41.69
2023-04-21T02:57:24.030Z, 41.76
2023-04-21T02:58:24.053Z, 41.71
2023-04-21T02:59:24.057Z, 41.70
2023-04-21T03:00:24.151Z, 41.75
2023-04-21T03:01:24.361Z, 41.70
2023-04-21T03:02:27.527Z, 41.71
2023-04-21T03:03:24.367Z, 41.70
2023-04-21T03:04:24.238Z, 41.65
2023-04-21T03:05:24.172Z, 41.62
2023-04-21T03:06:24.229Z, 41.62
2023-04-21T03:07:24.193Z, 41.59
2023-04-21T03:08:24.249Z, 41.52
2023-04-21T03:09:24.226Z, 41.49
2023-04-21T03:10:24.266Z, 41.47
2023-04-21T03:11:24.291Z, 41.40
2023-04-21T03:12:24.250Z, 41.36
2023-04-21T03:13:24.411Z, 41.49
2023-04-21T03:14:24.272Z, 41.45
2023-04-21T03:15:24.390Z, 41.42
2023-04-21T03:16:24.359Z, 41.43
2023-04-21T03:17:24.346Z, 41.39
2023-04-21T03:18:24.284Z, 41.36
2023-04-21T03:19:24.291Z, 41.31
2023-04-21T03:20:24.290Z, 41.29
2023-04-21T03:21:24.310Z, 41.28
2023-04-21T03:22:24.391Z, 41.26
2023-04-21T03:23:24.379Z, 41.23
2023-04-21T03:24:24.415Z, 41.24
2023-04-21T03:25:24.383Z, 41.17
2023-04-21T03:26:24.393Z, 41.15
2023-04-21T03:27:24.410Z, 41.16
2023-04-21T03:28:24.424Z, 41.17
2023-04-21T03:29:24.535Z, 41.16
2023-04-21T03:30:24.489Z, 41.10
2023-04-21T03:31:24.567Z, 41.78
2023-04-21T03:32:24.579Z, 43.16
2023-04-21T03:33:24.567Z, 43.53
2023-04-21T03:34:24.514Z, 43.57
2023-04-21T03:35:24.573Z, 43.49
2023-04-21T03:36:24.544Z, 43.42
2023-04-21T03:37:24.548Z, 43.35
2023-04-21T03:38:24.620Z, 43.16
2023-04-21T03:39:24.765Z, 42.87
2023-04-21T03:40:24.600Z, 42.50
2023-04-21T03:41:24.578Z, 42.17
2023-04-21T03:42:24.657Z, 41.92
2023-04-21T03:43:24.634Z, 41.69
2023-04-21T03:44:24.640Z, 41.52
2023-04-21T03:45:24.637Z, 41.33
2023-04-21T03:46:24.699Z, 41.19
2023-04-21T03:47:24.730Z, 41.00
2023-04-21T03:48:24.667Z, 40.83
2023-04-21T03:49:24.743Z, 40.63
2023-04-21T03:50:24.713Z, 40.42
2023-04-21T03:51:24.781Z, 40.23
2023-04-21T03:52:24.750Z, 40.05
2023-04-21T03:53:24.817Z, 39.87
2023-04-21T03:54:24.785Z, 39.72
2023-04-21T03:55:24.796Z, 39.54
2023-04-21T03:56:24.784Z, 39.39
2023-04-21T03:57:24.788Z, 39.25
2023-04-21T03:58:24.800Z, 39.05
2023-04-21T03:59:24.812Z, 38.93
2023-04-21T04:00:24.823Z, 38.82
2023-04-21T04:01:24.823Z, 38.65
2023-04-21T04:02:25.166Z, 38.54
2023-04-21T04:03:25.106Z, 38.44
2023-04-21T04:04:25.232Z, 42.52
2023-04-21T04:05:25.017Z, 49.39
2023-04-21T04:06:24.922Z, 51.88
2023-04-21T04:07:24.938Z, 50.65
2023-04-21T04:08:24.918Z, 49.65
2023-04-21T04:09:24.926Z, 48.76
2023-04-21T04:10:24.955Z, 47.94
2023-04-21T04:11:25.032Z, 47.14
2023-04-21T04:12:24.980Z, 46.40
2023-04-21T04:13:27.773Z, 45.76
2023-04-21T04:14:25.021Z, 45.19
2023-04-21T04:15:25.065Z, 44.68
2023-04-21T04:16:25.190Z, 44.25
2023-04-21T04:17:25.073Z, 43.83
2023-04-21T04:18:25.076Z, 43.44
2023-04-21T04:19:25.069Z, 43.09
2023-04-21T04:20:25.095Z, 42.75
2023-04-21T04:21:25.109Z, 42.43
2023-04-21T04:22:25.112Z, 42.08
2023-04-21T04:23:25.137Z, 41.73
2023-04-21T04:24:25.126Z, 41.35
2023-04-21T04:25:25.192Z, 40.98
2023-04-21T04:26:25.173Z, 40.61
2023-04-21T04:27:25.209Z, 40.15
2023-04-21T04:28:25.188Z, 39.71
2023-04-21T04:29:25.212Z, 39.25
2023-04-21T04:30:25.217Z, 38.77
2023-04-21T04:31:25.404Z, 38.27
2023-04-21T04:32:25.324Z, 40.54
2023-04-21T04:33:25.273Z, 47.82
2023-04-21T04:34:25.299Z, 52.83
2023-04-21T04:35:25.288Z, 52.82
2023-04-21T04:36:25.275Z, 51.34
2023-04-21T04:37:25.302Z, 50.31
2023-04-21T04:38:25.315Z, 49.65
2023-04-21T04:39:25.339Z, 49.14
2023-04-21T04:40:25.337Z, 48.54
2023-04-21T04:41:25.347Z, 48.05
2023-04-21T04:42:25.350Z, 47.51
2023-04-21T04:43:25.473Z, 46.87
2023-04-21T04:44:25.435Z, 46.36
2023-04-21T04:45:25.472Z, 45.89
2023-04-21T04:46:25.483Z, 45.45
2023-04-21T04:47:25.546Z, 44.97
2023-04-21T04:48:25.449Z, 44.52
2023-04-21T04:49:25.489Z, 44.05
2023-04-21T04:50:25.503Z, 43.63
2023-04-21T04:51:25.492Z, 43.24
2023-04-21T04:52:25.553Z, 42.86
2023-04-21T04:53:25.546Z, 42.50
2023-04-21T04:54:25.524Z, 42.17
2023-04-21T04:55:25.547Z, 41.80
2023-04-21T04:56:25.552Z, 41.34
2023-04-21T04:57:25.620Z, 40.93
2023-04-21T04:58:25.635Z, 40.50
2023-04-21T04:59:25.632Z, 40.11
2023-04-21T05:00:25.642Z, 39.63
2023-04-21T05:01:25.652Z, 39.13
2023-04-21T05:02:25.972Z, 38.62
2023-04-21T05:03:25.906Z, 39.00
2023-04-21T05:04:26.137Z, 46.41
2023-04-21T05:05:25.644Z, 52.90
2023-04-21T05:06:25.727Z, 53.66
2023-04-21T05:07:25.719Z, 52.14
2023-04-21T05:08:25.718Z, 50.64
2023-04-21T05:09:25.710Z, 49.61
2023-04-21T05:10:25.716Z, 48.97
2023-04-21T05:11:25.725Z, 48.38
2023-04-21T05:12:25.734Z, 47.83
2023-04-21T05:13:25.764Z, 47.32
2023-04-21T05:14:25.763Z, 46.79
2023-04-21T05:15:25.850Z, 46.30
2023-04-21T05:16:26.077Z, 45.87
2023-04-21T05:17:25.909Z, 45.49
2023-04-21T05:18:25.855Z, 45.24
2023-04-21T05:19:25.822Z, 44.95
2023-04-21T05:20:25.848Z, 44.62
2023-04-21T05:21:25.842Z, 44.36
2023-04-21T05:22:25.868Z, 44.18
2023-04-21T05:23:25.871Z, 43.99
2023-04-21T05:24:25.961Z, 43.79
2023-04-21T05:25:25.944Z, 43.59
2023-04-21T05:26:25.956Z, 43.43
2023-04-21T05:27:28.191Z, 43.23
2023-04-21T05:28:26.001Z, 43.12
2023-04-21T05:29:25.974Z, 42.94
2023-04-21T05:30:25.985Z, 42.78
2023-04-21T05:31:26.204Z, 42.66
2023-04-21T05:32:26.284Z, 42.51
2023-04-21T05:33:26.028Z, 42.39
2023-04-21T05:34:26.021Z, 42.27
2023-04-21T05:35:26.032Z, 42.15
2023-04-21T05:36:26.077Z, 42.00
2023-04-21T05:37:26.068Z, 41.89
2023-04-21T05:38:26.073Z, 41.80
2023-04-21T05:39:26.161Z, 41.66
2023-04-21T05:40:26.137Z, 41.55
2023-04-21T05:41:26.168Z, 41.47
2023-04-21T05:42:26.125Z, 41.35
2023-04-21T05:43:26.151Z, 41.25
2023-04-21T05:44:26.147Z, 41.11
2023-04-21T05:45:26.236Z, 41.02
2023-04-21T05:46:26.253Z, 40.93
2023-04-21T05:47:26.293Z, 40.84
2023-04-21T05:48:26.209Z, 40.73
2023-04-21T05:49:26.271Z, 40.64
2023-04-21T05:50:26.264Z, 40.57
2023-04-21T05:51:26.242Z, 40.48
2023-04-21T05:52:26.244Z, 40.35
2023-04-21T05:53:26.263Z, 40.27
2023-04-21T05:54:26.255Z, 40.18
2023-04-21T05:55:26.260Z, 40.13
2023-04-21T05:56:26.292Z, 40.06
2023-04-21T05:57:26.296Z, 40.02
2023-04-21T05:58:26.311Z, 39.90
2023-04-21T05:59:26.350Z, 39.81
2023-04-21T06:00:26.350Z, 39.79
2023-04-21T06:01:26.364Z, 39.67
2023-04-21T06:02:26.586Z, 39.61
2023-04-21T06:03:26.559Z, 39.58
2023-04-21T06:04:26.931Z, 39.51
2023-04-21T06:05:26.428Z, 39.41
2023-04-21T06:06:26.495Z, 39.33
2023-04-21T06:07:26.470Z, 39.26
2023-04-21T06:08:26.503Z, 39.17
2023-04-21T06:09:26.469Z, 39.12
2023-04-21T06:10:26.551Z, 39.04
2023-04-21T06:11:26.527Z, 38.99
2023-04-21T06:12:26.523Z, 38.95
2023-04-21T06:13:26.529Z, 38.91
2023-04-21T06:14:26.523Z, 38.85
2023-04-21T06:15:26.521Z, 38.81
2023-04-21T06:16:26.572Z, 38.73
2023-04-21T06:17:26.586Z, 38.67
2023-04-21T06:18:26.557Z, 38.63
2023-04-21T06:19:26.597Z, 38.58
2023-04-21T06:20:26.594Z, 38.53
2023-04-21T06:21:26.662Z, 38.48
2023-04-21T06:22:26.631Z, 38.45
2023-04-21T06:23:26.640Z, 38.40
2023-04-21T06:24:26.641Z, 38.33
2023-04-21T06:25:26.655Z, 38.31
2023-04-21T06:26:26.745Z, 38.27
2023-04-21T06:27:26.714Z, 38.25
2023-04-21T06:28:26.709Z, 38.22
2023-04-21T06:29:26.711Z, 38.16
2023-04-21T06:30:26.713Z, 38.08
2023-04-21T06:31:26.780Z, 38.08
2023-04-21T06:32:26.786Z, 38.01
2023-04-21T06:33:26.887Z, 37.96
2023-04-21T06:34:26.840Z, 37.90
2023-04-21T06:35:26.836Z, 38.17
2023-04-21T06:36:26.834Z, 41.41
2023-04-21T06:37:26.848Z, 45.14
2023-04-21T06:38:26.844Z, 49.45
2023-04-21T06:39:28.579Z, 54.02
2023-04-21T06:40:26.978Z, 58.29
2023-04-21T06:41:26.881Z, 67.73
2023-04-21T06:42:26.897Z, 60.57
2023-04-21T06:43:26.906Z, 52.83
2023-04-21T06:44:26.926Z, 53.66
2023-04-21T06:45:26.932Z, 54.52
2023-04-21T06:46:26.949Z, 56.86
2023-04-21T06:47:27.037Z, 60.15
2023-04-21T06:48:26.952Z, 68.69
2023-04-21T06:49:26.972Z, 56.17
2023-04-21T06:50:27.104Z, 53.58
2023-04-21T06:51:27.031Z, 54.72
2023-04-21T06:52:27.083Z, 56.07
2023-04-21T06:53:27.050Z, 56.92
2023-04-21T06:54:27.108Z, 57.58
2023-04-21T06:55:27.105Z, 58.13
2023-04-21T06:56:27.076Z, 58.34
2023-04-21T06:57:27.158Z, 58.58
2023-04-21T06:58:27.129Z, 58.63
2023-04-21T06:59:27.200Z, 58.75
2023-04-21T07:00:27.182Z, 58.83
2023-04-21T07:01:27.251Z, 58.79
2023-04-21T07:02:27.248Z, 58.74
2023-04-21T07:03:27.190Z, 58.62
2023-04-21T07:04:27.329Z, 58.56
2023-04-21T07:05:27.228Z, 58.37
2023-04-21T07:06:27.250Z, 58.24
2023-04-21T07:07:27.250Z, 58.18
2023-04-21T07:08:27.263Z, 58.02
2023-04-21T07:09:27.256Z, 57.94
2023-04-21T07:10:27.261Z, 57.73
2023-04-21T07:11:27.327Z, 57.64
2023-04-21T07:12:27.320Z, 57.55
2023-04-21T07:13:27.330Z, 57.41
2023-04-21T07:14:27.333Z, 57.20
2023-04-21T07:15:27.323Z, 57.05
2023-04-21T07:16:27.439Z, 56.89
2023-04-21T07:17:27.467Z, 56.79
2023-04-21T07:18:27.351Z, 56.69
2023-04-21T07:19:27.374Z, 56.61
2023-04-21T07:20:27.459Z, 56.40
2023-04-21T07:21:27.414Z, 56.35
2023-04-21T07:22:27.465Z, 56.15
2023-04-21T07:23:27.461Z, 56.07
2023-04-21T07:24:27.495Z, 55.94
2023-04-21T07:25:27.481Z, 55.81
2023-04-21T07:26:27.469Z, 55.72
2023-04-21T07:27:27.595Z, 55.60
2023-04-21T07:28:27.502Z, 55.41
2023-04-21T07:29:27.564Z, 55.30
2023-04-21T07:30:27.580Z, 55.18
2023-04-21T07:31:27.601Z, 55.00
2023-04-21T07:32:27.594Z, 54.99
2023-04-21T07:33:27.561Z, 54.93
2023-04-21T07:34:27.559Z, 54.80
2023-04-21T07:35:27.932Z, 54.65
2023-04-21T07:36:27.619Z, 54.56
2023-04-21T07:37:27.602Z, 54.43
2023-04-21T07:38:27.603Z, 54.25
2023-04-21T07:39:27.596Z, 54.17
2023-04-21T07:40:27.631Z, 54.11
2023-04-21T07:41:27.602Z, 54.08
2023-04-21T07:42:27.715Z, 53.95
2023-04-21T07:43:27.666Z, 53.84
2023-04-21T07:44:27.668Z, 53.71
2023-04-21T07:45:27.671Z, 53.55
2023-04-21T07:46:27.775Z, 53.56
2023-04-21T07:47:27.755Z, 53.50
2023-04-21T07:48:27.721Z, 53.37
2023-04-21T07:49:27.735Z, 53.29
2023-04-21T07:50:27.810Z, 53.21
2023-04-21T07:51:27.811Z, 53.17
2023-04-21T07:52:27.825Z, 53.11
2023-04-21T07:53:28.941Z, 52.93
2023-04-21T07:54:28.520Z, 52.86
2023-04-21T07:55:27.806Z, 52.78
2023-04-21T07:56:33.016Z, 52.70
2023-04-21T07:57:27.877Z, 52.61
2023-04-21T07:58:27.852Z, 52.59
2023-04-21T07:59:27.927Z, 52.54
2023-04-21T08:00:27.890Z, 52.50
2023-04-21T08:01:27.935Z, 52.39
2023-04-21T08:02:28.035Z, 52.33
2023-04-21T08:03:28.064Z, 52.34
2023-04-21T08:04:28.012Z, 52.29
2023-04-21T08:05:31.014Z, 52.15
2023-04-21T08:06:28.066Z, 52.11
2023-04-21T08:07:28.008Z, 52.07
2023-04-21T08:08:29.566Z, 52.01
2023-04-21T08:09:28.069Z, 51.98
2023-04-21T08:10:27.976Z, 51.89
2023-04-21T08:11:28.034Z, 51.86
2023-04-21T08:12:28.006Z, 51.79
2023-04-21T08:13:28.019Z, 51.77
2023-04-21T08:14:28.012Z, 51.66
2023-04-21T08:15:28.004Z, 51.61
2023-04-21T08:16:28.312Z, 51.57
2023-04-21T08:17:28.134Z, 51.45
2023-04-21T08:18:28.073Z, 51.44
2023-04-21T08:19:28.113Z, 51.41
2023-04-21T08:20:28.079Z, 51.32
2023-04-21T08:21:30.821Z, 51.28
2023-04-21T08:22:28.143Z, 51.17
2023-04-21T08:23:28.187Z, 51.14
2023-04-21T08:24:28.154Z, 51.16
2023-04-21T08:25:28.208Z, 51.10
2023-04-21T08:26:28.199Z, 51.06
2023-04-21T08:27:28.209Z, 50.94
2023-04-21T08:28:28.216Z, 50.86
2023-04-21T08:29:28.184Z, 50.85
2023-04-21T08:30:28.390Z, 50.78
2023-04-21T08:31:28.391Z, 50.69
2023-04-21T08:32:28.370Z, 50.65
2023-04-21T08:33:28.231Z, 50.72
2023-04-21T08:34:28.561Z, 50.58
2023-04-21T08:35:28.340Z, 50.57
2023-04-21T08:36:29.990Z, 50.45
2023-04-21T08:37:28.314Z, 50.41
2023-04-21T08:38:28.301Z, 50.42
2023-04-21T08:39:28.326Z, 50.34
2023-04-21T08:40:28.409Z, 50.27
2023-04-21T08:41:28.447Z, 50.22
2023-04-21T08:42:28.407Z, 50.21
2023-04-21T08:43:28.412Z, 50.18
2023-04-21T08:44:28.443Z, 50.11
2023-04-21T08:45:28.477Z, 50.11
2023-04-21T08:46:28.654Z, 50.07
2023-04-21T08:47:28.487Z, 49.98
2023-04-21T08:48:28.495Z, 49.97
2023-04-21T08:49:28.486Z, 49.88
2023-04-21T08:50:28.522Z, 49.79
2023-04-21T08:51:28.517Z, 49.86
2023-04-21T08:52:28.501Z, 49.80
2023-04-21T08:53:28.501Z, 49.76
2023-04-21T08:54:29.889Z, 49.75
2023-04-21T08:55:28.575Z, 49.67
2023-04-21T08:56:28.548Z, 49.61
2023-04-21T08:57:28.535Z, 49.57
2023-04-21T08:58:28.543Z, 49.59
2023-04-21T08:59:28.547Z, 49.50
2023-04-21T09:00:28.634Z, 49.48
2023-04-21T09:01:28.642Z, 49.40
2023-04-21T09:02:28.826Z, 49.39
2023-04-21T09:03:28.726Z, 49.33
2023-04-21T09:04:28.859Z, 49.27
2023-04-21T09:05:28.816Z, 49.25
2023-04-21T09:06:28.644Z, 49.24
2023-04-21T09:07:29.252Z, 49.20
2023-04-21T09:08:28.768Z, 49.14
2023-04-21T09:09:28.770Z, 49.15
2023-04-21T09:10:28.733Z, 49.09
2023-04-21T09:11:28.763Z, 49.02
2023-04-21T09:12:28.743Z, 48.97
2023-04-21T09:13:28.797Z, 48.82
2023-04-21T09:14:28.767Z, 48.79
2023-04-21T09:15:28.781Z, 48.76
2023-04-21T09:16:28.794Z, 48.70
2023-04-21T09:17:28.877Z, 48.71
2023-04-21T09:18:28.855Z, 48.64
2023-04-21T09:19:28.830Z, 48.56
2023-04-21T09:20:28.858Z, 48.55
2023-04-21T09:21:30.723Z, 48.55
2023-04-21T09:22:28.833Z, 48.52
2023-04-21T09:23:28.842Z, 48.36
2023-04-21T09:24:28.849Z, 48.29
2023-04-21T09:25:28.867Z, 48.29
2023-04-21T09:26:28.862Z, 48.28
2023-04-21T09:27:28.889Z, 48.25
2023-04-21T09:28:28.901Z, 48.22
2023-04-21T09:29:28.994Z, 48.10
2023-04-21T09:30:28.955Z, 48.07
2023-04-21T09:31:29.070Z, 48.05
2023-04-21T09:32:29.072Z, 48.09
2023-04-21T09:33:34.370Z, 47.94
2023-04-21T09:34:29.016Z, 47.87
2023-04-21T09:35:29.011Z, 47.92
2023-04-21T09:36:29.010Z, 47.84
2023-04-21T09:37:29.090Z, 47.74
2023-04-21T09:38:29.084Z, 47.64
2023-04-21T09:39:42.602Z, 47.63
2023-04-21T09:40:29.063Z, 47.63
2023-04-21T09:41:29.054Z, 47.60
2023-04-21T09:42:29.067Z, 47.55
2023-04-21T09:43:29.062Z, 47.52
2023-04-21T09:44:31.879Z, 47.47
2023-04-21T09:45:39.547Z, 47.43
2023-04-21T09:46:29.210Z, 47.39
2023-04-21T09:47:29.247Z, 47.28
2023-04-21T09:48:29.149Z, 47.27
2023-04-21T09:49:29.191Z, 47.21
2023-04-21T09:51:48.529Z, 47.23
2023-04-21T09:52:29.213Z, 47.16
2023-04-21T09:53:29.258Z, 47.13
2023-04-21T09:54:30.339Z, 47.11
2023-04-21T09:55:29.253Z, 47.02
2023-04-21T09:56:29.227Z, 46.96
2023-04-21T09:57:29.245Z, 46.94
2023-04-21T09:58:29.254Z, 46.90
2023-04-21T09:59:29.253Z, 46.82
2023-04-21T10:00:29.266Z, 46.87
2023-04-21T10:01:29.349Z, 47.57
2023-04-21T10:02:29.492Z, 48.89
2023-04-21T10:03:29.556Z, 49.16
2023-04-21T10:04:30.311Z, 49.23
2023-04-21T10:05:29.512Z, 49.11
2023-04-21T10:06:29.341Z, 48.92
2023-04-21T10:07:29.362Z, 48.58
2023-04-21T10:08:29.361Z, 48.09
2023-04-21T10:09:29.427Z, 47.47
2023-04-21T10:10:29.410Z, 46.69
2023-04-21T10:11:29.465Z, 45.82
2023-04-21T10:12:29.478Z, 44.83
2023-04-21T10:13:29.443Z, 43.93
2023-04-21T10:14:29.518Z, 43.20
2023-04-21T10:15:29.508Z, 42.57
2023-04-21T10:16:29.564Z, 42.08
2023-04-21T10:17:29.551Z, 41.70
2023-04-21T10:18:29.569Z, 41.41
2023-04-21T10:19:29.510Z, 41.16
2023-04-21T10:20:29.581Z, 40.91
2023-04-21T10:21:29.677Z, 40.71
2023-04-21T10:22:29.589Z, 40.51
2023-04-21T10:23:29.581Z, 40.32
2023-04-21T10:24:29.601Z, 40.12
2023-04-21T10:25:29.581Z, 39.96
2023-04-21T10:26:29.590Z, 39.81
2023-04-21T10:27:29.670Z, 39.68
2023-04-21T10:28:29.651Z, 39.51
2023-04-21T10:29:34.714Z, 39.37
2023-04-21T10:30:29.692Z, 39.23
2023-04-21T10:31:29.754Z, 39.08
2023-04-21T10:32:29.751Z, 38.91
2023-04-21T10:33:29.723Z, 38.87
2023-04-21T10:34:29.750Z, 38.69
2023-04-21T10:35:29.721Z, 38.49
2023-04-21T10:36:29.770Z, 38.30
2023-04-21T10:37:29.743Z, 38.14
2023-04-21T10:38:29.736Z, 37.99
2023-04-21T10:39:29.786Z, 37.84
2023-04-21T10:40:42.374Z, 37.75
2023-04-21T10:41:29.834Z, 37.63
2023-04-21T10:42:29.926Z, 37.57
2023-04-21T10:43:29.856Z, 37.48
2023-04-21T10:44:29.846Z, 37.44
2023-04-21T10:45:29.889Z, 37.35
2023-04-21T10:46:29.902Z, 37.28
2023-04-21T10:47:29.925Z, 37.19
2023-04-21T10:48:29.865Z, 37.13
2023-04-21T10:49:29.873Z, 37.11
2023-04-21T10:50:29.951Z, 37.08
2023-04-21T10:51:29.949Z, 37.03
2023-04-21T10:52:29.996Z, 36.97
2023-04-21T10:53:29.962Z, 36.93
2023-04-21T10:54:30.005Z, 36.92
2023-04-21T10:55:29.989Z, 36.87
2023-04-21T10:56:29.982Z, 36.84
2023-04-21T10:57:30.000Z, 36.85
2023-04-21T10:58:29.977Z, 36.78
2023-04-21T10:59:30.056Z, 36.74
2023-04-21T11:00:30.017Z, 36.71
2023-04-21T11:01:30.092Z, 36.64
2023-04-21T11:02:30.149Z, 36.61
2023-04-21T11:03:30.139Z, 36.59
2023-04-21T11:04:30.711Z, 36.54
2023-04-21T11:05:30.039Z, 36.54
2023-04-21T11:06:30.060Z, 36.51
2023-04-21T11:07:30.078Z, 36.46
2023-04-21T11:08:30.152Z, 36.44
2023-04-21T11:09:30.127Z, 36.43
2023-04-21T11:10:30.117Z, 36.37
2023-04-21T11:11:30.122Z, 36.35
2023-04-21T11:12:30.172Z, 36.30
2023-04-21T11:13:30.146Z, 36.26
2023-04-21T11:14:30.153Z, 36.20
2023-04-21T11:15:30.244Z, 36.20
2023-04-21T11:16:30.286Z, 36.19
2023-04-21T11:17:30.233Z, 36.20
2023-04-21T11:18:30.213Z, 36.15
2023-04-21T11:19:30.233Z, 36.15
2023-04-21T11:20:30.228Z, 36.11
2023-04-21T11:21:30.314Z, 36.06
2023-04-21T11:22:30.302Z, 36.06
2023-04-21T11:23:30.347Z, 36.05
2023-04-21T11:24:30.320Z, 36.02
2023-04-21T11:25:30.321Z, 36.01
2023-04-21T11:26:30.326Z, 36.00
2023-04-21T11:27:30.337Z, 35.99
2023-04-21T11:28:30.325Z, 35.99
2023-04-21T11:29:30.347Z, 35.94
2023-04-21T11:30:30.429Z, 35.95
2023-04-21T11:31:30.678Z, 35.91
2023-04-21T11:32:30.450Z, 35.92
2023-04-21T11:33:30.393Z, 35.93
2023-04-21T11:34:30.500Z, 35.92
2023-04-21T11:35:30.499Z, 35.87
2023-04-21T11:36:30.563Z, 35.86
2023-04-21T11:37:30.551Z, 35.78
2023-04-21T11:38:30.523Z, 35.78
2023-04-21T11:39:30.538Z, 35.80
2023-04-21T11:40:30.518Z, 35.76
2023-04-21T11:41:30.583Z, 35.73
2023-04-21T11:42:30.582Z, 35.76
2023-04-21T11:43:30.556Z, 35.69
2023-04-21T11:44:30.594Z, 35.64
2023-04-21T11:45:30.586Z, 35.63
2023-04-21T11:46:30.729Z, 35.62
2023-04-21T11:47:30.636Z, 35.62
2023-04-21T11:48:30.668Z, 35.59
2023-04-21T11:49:30.669Z, 35.59
2023-04-21T11:50:30.648Z, 35.59
2023-04-21T11:51:30.652Z, 35.57
2023-04-21T11:52:30.665Z, 35.58
2023-04-21T11:53:30.656Z, 35.56
2023-04-21T11:54:30.656Z, 35.56
2023-04-21T11:55:30.737Z, 35.57
2023-04-21T11:56:30.703Z, 35.53
2023-04-21T11:57:30.705Z, 35.49
2023-04-21T11:58:30.706Z, 35.47
2023-04-21T11:59:30.718Z, 35.47
2023-04-21T12:00:30.730Z, 35.45
2023-04-21T12:01:30.761Z, 35.45
2023-04-21T12:02:31.080Z, 35.48
2023-04-21T12:03:30.954Z, 35.45
2023-04-21T12:04:33.676Z, 35.44
2023-04-21T12:05:30.855Z, 35.40
2023-04-21T12:06:30.888Z, 35.38
2023-04-21T12:07:30.859Z, 35.39
2023-04-21T12:08:30.871Z, 35.33
2023-04-21T12:09:30.926Z, 35.33
2023-04-21T12:10:30.869Z, 35.32
2023-04-21T12:11:30.950Z, 35.29
2023-04-21T12:12:30.910Z, 35.24
2023-04-21T12:13:30.974Z, 35.27
2023-04-21T12:14:30.934Z, 35.25
2023-04-21T12:15:30.977Z, 35.23
2023-04-21T12:16:31.043Z, 35.17
2023-04-21T12:17:30.981Z, 35.19
2023-04-21T12:18:31.010Z, 35.19
2023-04-21T12:19:30.974Z, 35.24
2023-04-21T12:20:31.424Z, 35.20
2023-04-21T12:21:31.009Z, 35.20
2023-04-21T12:22:31.030Z, 35.19
2023-04-21T12:23:31.008Z, 35.20
2023-04-21T12:24:31.006Z, 35.19
2023-04-21T12:25:31.018Z, 35.16
2023-04-21T12:26:31.063Z, 35.17
2023-04-21T12:27:31.056Z, 35.14
2023-04-21T12:28:31.162Z, 35.17
2023-04-21T12:29:31.111Z, 35.14